createdAt,value
2023-08-17T00:00:32.976Z,88.72
2023-08-17T00:03:00.762Z,88.68
2023-08-17T00:05:29.224Z,88.48
2023-08-17T00:07:57.054Z,89.18
2023-08-17T00:10:25.211Z,88.75
2023-08-17T00:12:54.309Z,89.53
2023-08-17T00:15:22.290Z,88.82
2023-08-17T00:17:50.151Z,91.00
2023-08-17T00:20:18.314Z,91.71
2023-08-17T00:22:46.083Z,92.57
2023-08-17T00:25:14.749Z,92.96
2023-08-17T00:27:42.501Z,95.01
2023-08-17T00:30:12.922Z,94.92
2023-08-17T00:32:40.834Z,96.28
2023-08-17T00:35:09.699Z,96.24
2023-08-17T00:37:37.560Z,95.72
2023-08-17T00:40:06.086Z,96.04
2023-08-17T00:42:33.938Z,96.40
2023-08-17T00:45:01.791Z,96.42
2023-08-17T00:47:31.294Z,97.25
2023-08-17T00:50:00.295Z,97.85
2023-08-17T00:52:28.368Z,98.41
2023-08-17T00:54:57.103Z,98.03
2023-08-17T00:57:25.593Z,98.04
2023-08-17T01:00:04.725Z,98.30
2023-08-17T01:02:36.644Z,99.56
2023-08-17T01:05:07.119Z,99.88
2023-08-17T01:07:35.144Z,99.39
2023-08-17T01:10:04.227Z,99.92
2023-08-17T01:12:33.736Z,100.00
2023-08-17T01:15:10.158Z,100.00
2023-08-17T01:17:45.063Z,100.00
2023-08-17T01:20:15.776Z,100.00
2023-08-17T01:22:47.126Z,100.00
2023-08-17T01:25:16.325Z,99.77
2023-08-17T01:27:46.280Z,99.23
2023-08-17T01:30:17.112Z,100.00
2023-08-17T01:32:53.266Z,100.00
2023-08-17T01:35:31.272Z,100.00
2023-08-17T01:38:04.847Z,100.00
2023-08-17T01:40:35.737Z,100.00
2023-08-17T01:43:04.947Z,100.00
2023-08-17T01:45:32.794Z,100.00
2023-08-17T01:48:03.349Z,100.00
2023-08-17T01:50:32.426Z,99.72
2023-08-17T01:53:00.240Z,99.66
2023-08-17T01:55:28.268Z,100.00
2023-08-17T01:57:57.412Z,99.85
2023-08-17T02:00:25.662Z,100.00
2023-08-17T02:02:53.406Z,100.00
2023-08-17T02:05:21.281Z,100.00
2023-08-17T02:07:49.067Z,100.00
2023-08-17T02:10:17.051Z,100.00
2023-08-17T02:12:44.847Z,100.00
2023-08-17T02:15:14.530Z,100.00
2023-08-17T02:17:42.376Z,100.00
2023-08-17T02:20:12.145Z,100.00
2023-08-17T02:22:39.924Z,100.00
2023-08-17T02:25:09.078Z,100.00
2023-08-17T02:27:36.919Z,100.00
2023-08-17T02:30:05.258Z,100.00
2023-08-17T02:32:34.408Z,100.00
2023-08-17T02:35:02.244Z,100.00
2023-08-17T02:37:29.998Z,100.00
2023-08-17T02:39:58.809Z,100.00
2023-08-17T02:42:26.720Z,100.00
2023-08-17T02:44:55.577Z,100.00
2023-08-17T02:47:23.436Z,100.00
2023-08-17T02:49:52.713Z,100.00
2023-08-17T02:52:20.511Z,100.00
2023-08-17T02:54:48.266Z,100.00
2023-08-17T02:57:16.106Z,100.00
2023-08-17T02:59:43.965Z,100.00
2023-08-17T03:02:11.708Z,100.00
2023-08-17T03:04:39.548Z,100.00
2023-08-17T03:07:08.846Z,100.00
2023-08-17T03:09:37.881Z,100.00
2023-08-17T03:12:06.489Z,100.00
2023-08-17T03:14:34.317Z,100.00
2023-08-17T03:17:02.075Z,100.00
2023-08-17T03:19:29.893Z,100.00
2023-08-17T03:21:57.732Z,100.00
2023-08-17T03:24:27.326Z,100.00
2023-08-17T03:26:55.485Z,100.00
2023-08-17T03:29:27.139Z,100.00
2023-08-17T03:31:56.886Z,100.00
2023-08-17T03:34:25.263Z,100.00
2023-08-17T03:36:53.075Z,100.00
2023-08-17T03:39:20.995Z,100.00
2023-08-17T03:41:50.550Z,100.00
2023-08-17T03:44:18.342Z,100.00
2023-08-17T03:46:46.088Z,100.00
2023-08-17T03:49:15.569Z,100.00
2023-08-17T03:51:43.396Z,100.00
2023-08-17T03:54:12.370Z,100.00
2023-08-17T03:56:40.175Z,100.00
2023-08-17T03:59:09.279Z,100.00
2023-08-17T04:01:37.103Z,100.00
2023-08-17T04:04:05.355Z,99.94
2023-08-17T04:06:33.360Z,100.00
2023-08-17T04:09:01.772Z,100.00
2023-08-17T04:11:30.507Z,99.58
2023-08-17T04:13:58.373Z,99.89
2023-08-17T04:16:27.617Z,99.93
2023-08-17T04:18:55.413Z,99.71
2023-08-17T04:21:23.229Z,100.00
2023-08-17T04:23:50.991Z,99.92
2023-08-17T04:26:18.733Z,100.00
2023-08-17T04:28:46.528Z,100.00
2023-08-17T04:31:18.175Z,99.85
2023-08-17T04:33:49.908Z,99.84
2023-08-17T04:36:17.740Z,100.00
2023-08-17T04:38:46.004Z,99.75
2023-08-17T04:41:13.806Z,99.63
2023-08-17T04:43:41.681Z,99.86
2023-08-17T04:46:09.475Z,99.53
2023-08-17T04:48:38.491Z,99.79
2023-08-17T04:51:08.021Z,99.88
2023-08-17T04:53:35.891Z,99.90
2023-08-17T04:56:04.785Z,99.77
2023-08-17T04:58:33.037Z,99.89
2023-08-17T05:01:01.478Z,99.92
2023-08-17T05:03:33.666Z,99.80
2023-08-17T05:06:02.659Z,99.63
2023-08-17T05:08:31.868Z,99.67
2023-08-17T05:10:59.668Z,99.78
2023-08-17T05:13:27.973Z,99.61
2023-08-17T05:15:59.046Z,99.29
2023-08-17T05:18:26.979Z,99.72
2023-08-17T05:20:55.943Z,98.98
2023-08-17T05:23:23.702Z,99.11
2023-08-17T05:25:53.529Z,98.79
2023-08-17T05:28:21.349Z,99.45
2023-08-17T05:30:51.015Z,98.93
2023-08-17T05:33:18.955Z,98.44
2023-08-17T05:35:47.359Z,98.51
2023-08-17T05:38:15.134Z,97.99
2023-08-17T05:40:43.236Z,97.95
2023-08-17T05:43:13.458Z,98.08
2023-08-17T05:45:41.233Z,98.06
2023-08-17T05:48:09.015Z,98.15
2023-08-17T05:50:36.816Z,98.17
2023-08-17T05:53:04.948Z,98.07
2023-08-17T05:55:32.707Z,98.11
2023-08-17T05:58:00.443Z,98.08
2023-08-17T06:00:29.595Z,97.64
2023-08-17T06:03:02.273Z,97.90
2023-08-17T06:05:30.708Z,97.84
2023-08-17T06:07:58.902Z,97.92
2023-08-17T06:10:27.210Z,97.70
2023-08-17T06:12:55.680Z,97.72
2023-08-17T06:15:23.863Z,98.17
2023-08-17T06:17:53.527Z,98.40
2023-08-17T06:20:21.535Z,97.79
2023-08-17T06:22:50.180Z,97.22
2023-08-17T06:25:18.090Z,97.15
2023-08-17T06:27:46.062Z,96.60
2023-08-17T06:30:14.589Z,97.04
2023-08-17T06:32:42.391Z,97.14
2023-08-17T06:35:11.841Z,96.75
2023-08-17T06:37:39.649Z,96.43
2023-08-17T06:40:10.212Z,97.02
2023-08-17T06:42:38.297Z,96.95
2023-08-17T06:45:08.033Z,96.07
2023-08-17T06:47:35.878Z,95.92
2023-08-17T06:50:04.415Z,96.86
2023-08-17T06:52:34.878Z,96.33
2023-08-17T06:55:02.635Z,94.90
2023-08-17T06:57:30.729Z,95.00
2023-08-17T06:59:58.572Z,95.13
2023-08-17T07:02:33.060Z,94.55
2023-08-17T07:05:07.697Z,95.88
2023-08-17T07:07:37.305Z,95.39
2023-08-17T07:10:05.522Z,95.67
2023-08-17T07:12:33.350Z,95.38
2023-08-17T07:15:01.167Z,95.74
2023-08-17T07:17:29.234Z,95.01
2023-08-17T07:20:14.815Z,95.06
2023-08-17T07:22:45.570Z,94.91
2023-08-17T07:25:13.385Z,96.00
2023-08-17T07:27:41.481Z,95.48
2023-08-17T07:30:10.286Z,94.38
2023-08-17T07:32:38.113Z,94.90
2023-08-17T07:35:06.958Z,95.21
2023-08-17T07:37:35.260Z,93.57
2023-08-17T07:40:05.568Z,92.89
2023-08-17T07:42:33.421Z,92.27
2023-08-17T07:45:02.348Z,92.82
2023-08-17T07:47:30.362Z,93.39
2023-08-17T07:49:58.945Z,93.24
2023-08-17T07:52:26.719Z,92.69
2023-08-17T07:54:54.554Z,91.73
2023-08-17T07:57:23.779Z,92.20
2023-08-17T07:59:52.212Z,92.90
2023-08-17T08:02:20.127Z,92.33
2023-08-17T08:04:47.970Z,91.54
2023-08-17T08:07:15.807Z,91.07
2023-08-17T08:09:43.728Z,91.22
2023-08-17T08:12:11.517Z,91.19
2023-08-17T08:14:40.664Z,90.81
2023-08-17T08:17:08.429Z,90.10
2023-08-17T08:19:37.287Z,89.27
2023-08-17T08:22:05.132Z,89.75
2023-08-17T08:24:38.294Z,89.60
2023-08-17T08:27:06.960Z,89.90
2023-08-17T08:29:35.684Z,88.15
2023-08-17T08:32:05.276Z,88.64
2023-08-17T08:34:33.375Z,89.22
2023-08-17T08:37:01.199Z,89.06
2023-08-17T08:39:29.086Z,89.73
2023-08-17T08:41:57.109Z,90.29
2023-08-17T08:44:25.093Z,89.06
2023-08-17T08:46:57.008Z,89.15
2023-08-17T08:49:27.183Z,89.25
2023-08-17T08:51:54.957Z,88.80
2023-08-17T08:54:24.194Z,87.67
2023-08-17T08:56:57.543Z,87.47
2023-08-17T08:59:28.217Z,86.55
2023-08-17T09:01:57.490Z,87.59
2023-08-17T09:04:27.926Z,85.74
2023-08-17T09:06:57.545Z,85.92
2023-08-17T09:09:29.465Z,85.85
2023-08-17T09:11:58.304Z,86.65
2023-08-17T09:14:26.196Z,87.51
2023-08-17T09:16:54.008Z,86.95
2023-08-17T09:19:22.271Z,87.97
2023-08-17T09:21:51.778Z,87.68
2023-08-17T09:24:19.653Z,87.05
2023-08-17T09:26:47.496Z,87.23
2023-08-17T09:29:19.731Z,87.70
2023-08-17T09:31:47.772Z,87.17
2023-08-17T09:34:17.008Z,85.67
2023-08-17T09:36:48.193Z,86.67
2023-08-17T09:39:19.059Z,86.95
2023-08-17T09:41:47.279Z,87.86
2023-08-17T09:44:15.105Z,87.15
2023-08-17T09:46:45.475Z,87.42
2023-08-17T09:49:13.469Z,87.61
2023-08-17T09:51:44.548Z,83.52
2023-08-17T09:54:22.196Z,82.98
2023-08-17T09:56:51.879Z,80.58
2023-08-17T09:59:19.985Z,81.03
2023-08-17T10:01:56.778Z,78.85
2023-08-17T10:04:25.727Z,80.57
2023-08-17T10:07:02.271Z,79.44
2023-08-17T10:09:38.302Z,78.19
2023-08-17T10:12:13.230Z,78.57
2023-08-17T10:14:48.569Z,78.45
2023-08-17T10:17:24.443Z,75.54
2023-08-17T10:19:56.258Z,75.62
2023-08-17T10:22:30.856Z,75.90
2023-08-17T10:25:02.422Z,78.76
2023-08-17T10:27:31.346Z,80.69
2023-08-17T10:30:01.326Z,81.03
2023-08-17T10:32:30.209Z,80.59
2023-08-17T10:34:59.778Z,80.21
2023-08-17T10:37:28.850Z,82.10
2023-08-17T10:39:56.705Z,81.82
2023-08-17T10:42:36.265Z,82.53
2023-08-17T10:48:23.046Z,82.37
2023-08-17T10:51:02.415Z,82.00
2023-08-17T10:53:36.710Z,82.78
2023-08-17T10:56:09.328Z,83.24
2023-08-17T10:58:38.656Z,84.02
2023-08-17T11:01:06.892Z,82.42
2023-08-17T11:03:37.466Z,83.21
2023-08-17T11:06:19.489Z,82.48
2023-08-17T11:08:56.730Z,81.44
2023-08-17T11:11:25.445Z,82.07
2023-08-17T11:13:57.898Z,81.91
2023-08-17T11:16:26.127Z,81.73
2023-08-17T11:18:56.690Z,82.23
2023-08-17T11:21:24.578Z,80.04
2023-08-17T11:23:52.444Z,80.55
2023-08-17T11:26:20.815Z,80.32
2023-08-17T11:28:49.134Z,79.68
2023-08-17T11:31:18.276Z,79.99
2023-08-17T11:33:47.939Z,80.80
2023-08-17T11:36:16.424Z,80.55
2023-08-17T11:38:45.435Z,79.34
2023-08-17T11:41:18.925Z,78.26
2023-08-17T11:43:47.992Z,78.66
2023-08-17T11:46:17.105Z,78.39
2023-08-17T11:48:46.354Z,78.15
2023-08-17T11:51:14.190Z,77.59
2023-08-17T11:53:42.218Z,77.41
2023-08-17T11:56:11.153Z,77.92
2023-08-17T11:58:43.683Z,76.54
2023-08-17T12:01:12.875Z,75.32
2023-08-17T12:03:42.469Z,75.78
2023-08-17T12:06:13.981Z,74.61
2023-08-17T12:08:47.078Z,74.66
2023-08-17T12:11:15.832Z,74.78
2023-08-17T12:13:43.838Z,75.94
2023-08-17T12:16:17.234Z,75.18
2023-08-17T12:18:46.474Z,75.68
2023-08-17T12:21:15.735Z,74.78
2023-08-17T12:23:43.750Z,75.48
2023-08-17T12:26:11.511Z,76.37
2023-08-17T12:28:42.222Z,76.57
2023-08-17T12:31:10.140Z,76.78
2023-08-17T12:33:37.956Z,75.81
2023-08-17T12:36:07.853Z,75.76
2023-08-17T12:38:39.073Z,76.83
2023-08-17T12:41:07.470Z,76.18
2023-08-17T12:43:35.416Z,76.96
2023-08-17T12:46:03.182Z,76.57
2023-08-17T12:48:36.251Z,76.53
2023-08-17T12:51:05.432Z,76.95
2023-08-17T12:53:33.446Z,77.03
2023-08-17T12:56:02.754Z,76.66
2023-08-17T12:58:30.568Z,77.17
2023-08-17T13:00:58.413Z,77.77
2023-08-17T13:03:26.499Z,77.55
2023-08-17T13:05:54.439Z,76.89
2023-08-17T13:08:22.398Z,76.31
2023-08-17T13:10:50.216Z,77.78
2023-08-17T13:13:19.366Z,76.91
2023-08-17T13:15:47.210Z,76.55
2023-08-17T13:18:15.029Z,76.64
2023-08-17T13:20:42.991Z,75.72
2023-08-17T13:23:10.875Z,76.52
2023-08-17T13:25:38.722Z,75.55
2023-08-17T13:28:07.034Z,76.29
2023-08-17T13:30:36.157Z,75.20
2023-08-17T13:33:04.046Z,75.63
2023-08-17T13:35:32.195Z,75.11
2023-08-17T13:38:00.019Z,76.49
2023-08-17T13:40:27.890Z,76.45
2023-08-17T13:42:55.676Z,77.22
2023-08-17T13:45:23.471Z,75.66
2023-08-17T13:47:52.698Z,75.60
2023-08-17T13:50:20.550Z,75.37
2023-08-17T13:52:48.872Z,75.60
2023-08-17T13:55:16.873Z,74.10
2023-08-17T13:57:44.753Z,75.66
2023-08-17T14:00:13.844Z,76.67
2023-08-17T14:02:41.705Z,75.49
2023-08-17T14:05:10.998Z,76.85
2023-08-17T14:07:38.769Z,77.89
2023-08-17T14:10:10.571Z,76.68
2023-08-17T14:12:41.727Z,77.93
2023-08-17T14:15:10.255Z,78.39
2023-08-17T14:17:38.105Z,76.96
2023-08-17T14:20:06.720Z,76.76
2023-08-17T14:22:35.900Z,77.27
2023-08-17T14:25:04.201Z,78.14
2023-08-17T14:27:31.948Z,79.54
2023-08-17T14:30:02.426Z,78.88
2023-08-17T14:32:34.695Z,78.10
2023-08-17T14:35:03.201Z,78.01
2023-08-17T14:37:31.457Z,79.65
2023-08-17T14:40:00.992Z,78.58
2023-08-17T14:42:30.636Z,79.32
2023-08-17T14:44:58.528Z,79.03
2023-08-17T14:47:26.602Z,79.50
2023-08-17T14:49:55.107Z,79.47
2023-08-17T14:52:22.961Z,79.04
2023-08-17T14:54:50.817Z,78.71
2023-08-17T14:57:20.046Z,78.22
2023-08-17T14:59:47.941Z,78.22
2023-08-17T15:04:48.914Z,78.36
2023-08-17T15:07:17.517Z,77.68
2023-08-17T15:09:45.345Z,79.23
2023-08-17T15:12:13.246Z,78.57
2023-08-17T15:14:42.418Z,78.16
2023-08-17T15:17:13.534Z,78.42
2023-08-17T15:19:41.635Z,78.00
2023-08-17T15:22:15.335Z,77.39
2023-08-17T15:24:44.793Z,76.45
2023-08-17T15:27:12.753Z,76.64
2023-08-17T15:29:42.195Z,75.83
2023-08-17T15:32:10.887Z,74.52
2023-08-17T15:34:38.812Z,75.20
2023-08-17T15:37:07.859Z,73.06
2023-08-17T15:39:35.786Z,73.23
2023-08-17T15:42:03.629Z,72.13
2023-08-17T15:44:33.418Z,72.15
2023-08-17T15:47:02.969Z,73.03
2023-08-17T15:49:30.905Z,72.72
2023-08-17T15:51:58.756Z,73.97
2023-08-17T15:54:35.812Z,74.56
2023-08-17T15:57:05.551Z,74.65
2023-08-17T15:59:33.666Z,76.36
2023-08-17T16:02:02.912Z,78.17
2023-08-17T16:04:30.770Z,78.97
2023-08-17T16:06:58.604Z,79.31
2023-08-17T16:09:30.740Z,79.65
2023-08-17T16:11:58.880Z,78.54
2023-08-17T16:14:26.844Z,78.49
2023-08-17T16:16:57.610Z,79.24
2023-08-17T16:19:27.380Z,79.44
2023-08-17T16:21:55.264Z,79.23
2023-08-17T16:26:54.067Z,81.26
2023-08-17T16:29:22.075Z,81.52
2023-08-17T16:32:01.898Z,82.37
2023-08-17T16:34:32.099Z,81.74
2023-08-17T16:37:00.258Z,81.11
2023-08-17T16:39:29.043Z,81.81
2023-08-17T16:41:58.565Z,81.03
2023-08-17T16:44:28.365Z,80.47
2023-08-17T16:46:56.644Z,80.92
2023-08-17T16:49:29.741Z,81.01
2023-08-17T16:52:00.521Z,80.55
2023-08-17T16:54:28.477Z,80.85
2023-08-17T16:56:56.320Z,81.96
2023-08-17T16:59:24.214Z,82.34
2023-08-17T17:01:52.026Z,82.83
2023-08-17T17:04:19.979Z,83.17
2023-08-17T17:06:47.888Z,83.69
2023-08-17T17:09:17.090Z,83.78
2023-08-17T17:11:45.023Z,83.21
2023-08-17T17:14:12.879Z,83.45
2023-08-17T17:16:40.696Z,84.22
2023-08-17T17:19:08.905Z,83.91
2023-08-17T17:21:36.955Z,84.15
2023-08-17T17:24:05.380Z,83.80
2023-08-17T17:26:37.468Z,83.89
2023-08-17T17:29:05.749Z,84.17
2023-08-17T17:31:33.700Z,83.90
2023-08-17T17:34:02.740Z,84.65
2023-08-17T17:36:31.424Z,83.99
2023-08-17T17:38:59.373Z,85.20
2023-08-17T17:41:27.309Z,85.67
2023-08-17T17:43:56.681Z,86.52
2023-08-17T17:46:24.685Z,86.37
2023-08-17T17:48:53.926Z,86.96
2023-08-17T17:51:22.476Z,86.57
2023-08-17T17:53:50.545Z,86.52
2023-08-17T17:56:18.413Z,86.65
2023-08-17T17:58:46.240Z,87.34
2023-08-17T18:01:15.525Z,87.69
2023-08-17T18:06:11.416Z,87.49
2023-08-17T18:08:39.365Z,87.76
2023-08-17T18:11:07.266Z,87.93
2023-08-17T18:13:35.089Z,87.97
2023-08-17T18:16:02.959Z,88.22
2023-08-17T18:18:33.545Z,87.94
2023-08-17T18:21:01.513Z,88.19
2023-08-17T18:23:29.902Z,88.19
2023-08-17T18:25:57.732Z,88.46
2023-08-17T18:28:25.659Z,89.05
2023-08-17T18:30:53.740Z,89.28
2023-08-17T18:33:21.620Z,89.45
2023-08-17T18:35:50.840Z,89.50
2023-08-17T18:38:18.708Z,89.26
2023-08-17T18:40:47.060Z,88.95
2023-08-17T18:43:14.876Z,88.41
2023-08-17T18:45:42.751Z,88.22
2023-08-17T18:48:10.584Z,88.66
2023-08-17T18:50:38.505Z,88.49
2023-08-17T18:53:07.614Z,88.42
2023-08-17T18:55:35.445Z,89.38
2023-08-17T18:58:03.282Z,89.08
2023-08-17T19:00:31.106Z,88.97
2023-08-17T19:02:59.041Z,90.08
2023-08-17T19:05:27.016Z,89.80
2023-08-17T19:07:54.979Z,89.32
2023-08-17T19:10:24.213Z,89.04
2023-08-17T19:12:52.066Z,89.38
2023-08-17T19:15:19.984Z,89.72
2023-08-17T19:17:47.992Z,89.18
2023-08-17T19:20:15.867Z,88.61
2023-08-17T19:22:43.859Z,89.71
2023-08-17T19:25:11.856Z,90.10
2023-08-17T19:27:41.433Z,90.96
2023-08-17T19:30:11.586Z,90.12
2023-08-17T19:32:41.548Z,90.01
2023-08-17T19:35:10.113Z,90.21
2023-08-17T19:37:38.042Z,90.12
2023-08-17T19:40:07.380Z,90.48
2023-08-17T19:42:35.314Z,91.55
2023-08-17T19:45:05.534Z,91.50
2023-08-17T19:47:33.458Z,91.10
2023-08-17T19:50:01.365Z,91.26
2023-08-17T19:52:29.298Z,91.02
2023-08-17T19:54:57.768Z,91.05
2023-08-17T19:57:26.684Z,90.58
2023-08-17T19:59:54.818Z,91.06
2023-08-17T20:02:24.114Z,90.09
2023-08-17T20:04:52.044Z,90.00
2023-08-17T20:07:19.849Z,90.01
2023-08-17T20:09:47.734Z,90.43
2023-08-17T20:12:15.558Z,90.09
2023-08-17T20:14:43.636Z,90.26
2023-08-17T20:17:11.915Z,90.73
2023-08-17T20:19:41.117Z,90.06
2023-08-17T20:22:09.193Z,90.52
2023-08-17T20:24:37.031Z,90.61
2023-08-17T20:27:06.364Z,90.03
2023-08-17T20:29:34.397Z,89.86
2023-08-17T20:32:02.316Z,89.70
2023-08-17T20:34:30.356Z,89.80
2023-08-17T20:36:59.570Z,89.87
2023-08-17T20:39:27.415Z,89.46
2023-08-17T20:41:55.994Z,89.92
2023-08-17T20:44:23.839Z,90.56
2023-08-17T20:46:52.287Z,89.58
2023-08-17T20:49:21.785Z,90.02
2023-08-17T20:51:51.317Z,89.53
2023-08-17T20:54:20.665Z,89.85
2023-08-17T20:56:48.552Z,89.74
2023-08-17T20:59:16.636Z,89.67
2023-08-17T21:01:44.587Z,90.04
2023-08-17T21:04:12.385Z,89.54
2023-08-17T21:06:42.263Z,89.69
2023-08-17T21:09:10.924Z,90.63
2023-08-17T21:11:40.177Z,89.75
2023-08-17T21:14:07.999Z,89.57
2023-08-17T21:16:37.204Z,90.23
2023-08-17T21:19:06.629Z,89.72
2023-08-17T21:21:34.745Z,90.32
2023-08-17T21:24:02.688Z,89.70
2023-08-17T21:26:30.555Z,90.59
2023-08-17T21:28:59.759Z,90.55
2023-08-17T21:31:27.697Z,90.49
2023-08-17T21:33:55.604Z,90.04
2023-08-17T21:36:23.592Z,90.06
2023-08-17T21:38:51.446Z,90.82
2023-08-17T21:41:19.317Z,90.62
2023-08-17T21:43:47.220Z,90.91
2023-08-17T21:46:16.549Z,90.42
2023-08-17T21:48:44.408Z,90.25
2023-08-17T21:51:12.255Z,90.92
2023-08-17T21:53:40.490Z,91.28
2023-08-17T21:56:08.380Z,91.33
2023-08-17T21:58:36.204Z,91.03
2023-08-17T22:01:04.051Z,91.00
2023-08-17T22:03:33.445Z,91.02
2023-08-17T22:06:06.699Z,90.82
2023-08-17T22:08:34.742Z,91.42
2023-08-17T22:11:02.734Z,91.92
2023-08-17T22:13:30.572Z,91.52
2023-08-17T22:15:58.641Z,92.41
2023-08-17T22:18:26.454Z,92.41
2023-08-17T22:20:55.636Z,91.51
2023-08-17T22:23:23.536Z,91.70
2023-08-17T22:25:51.404Z,91.95
2023-08-17T22:28:19.266Z,91.76
2023-08-17T22:30:47.173Z,91.17
2023-08-17T22:33:15.124Z,90.87
2023-08-17T22:35:42.906Z,91.28
2023-08-17T22:38:12.126Z,91.56
2023-08-17T22:40:39.906Z,90.94
2023-08-17T22:43:07.770Z,90.79
2023-08-17T22:45:35.660Z,90.92
2023-08-17T22:48:03.558Z,91.11
2023-08-17T22:50:31.511Z,90.80
2023-08-17T22:52:59.285Z,91.24
2023-08-17T22:55:28.938Z,91.47
2023-08-17T22:57:56.832Z,91.83
2023-08-17T23:00:24.754Z,92.79
2023-08-17T23:02:52.668Z,93.10
2023-08-17T23:05:20.592Z,93.42
2023-08-17T23:07:48.485Z,93.33
2023-08-17T23:10:16.308Z,93.51
2023-08-17T23:12:45.606Z,92.95
2023-08-17T23:15:13.494Z,92.42
2023-08-17T23:17:41.305Z,93.22
2023-08-17T23:20:10.154Z,93.16
2023-08-17T23:22:38.049Z,93.00
2023-08-17T23:25:06.850Z,93.61
2023-08-17T23:27:34.764Z,94.07
2023-08-17T23:30:04.433Z,94.50
2023-08-17T23:32:32.488Z,94.62
2023-08-17T23:35:00.444Z,93.93
2023-08-17T23:37:28.597Z,94.30
2023-08-17T23:39:56.661Z,94.47
2023-08-17T23:42:24.498Z,95.01
2023-08-17T23:44:52.407Z,95.25
2023-08-17T23:47:21.624Z,95.23
2023-08-17T23:49:49.443Z,94.38
2023-08-17T23:52:17.256Z,94.08
2023-08-17T23:54:45.101Z,94.44
2023-08-17T23:57:13.078Z,94.12
2023-08-17T23:59:40.929Z,94.09
